CYBR

Brandon Municipal Airport

Brandon, Manitoba, Canada
METAR CYBR 241100Z 27005KT 8SM OVC005 M05/M06 A3004 RMK ST8 SLP203
Observed Flight Rules
Jan-24 @ 11:00 UTC (29 minutes ago) Instrument Flight Rules
Wind Visibility Clouds
270° at 5 knots 8 miles
  • Overcast at 500' AGL
Temperatures Readings
Current -5°C / 23°F
Dewpoint -6°C / 21°F
Humidity 93%
Altimeter 30.04" Hg
Pressure 1020.3 hPa
Elevation 409
METAR CYBR 241100Z 27005KT 8SM OVC005 M05/M06 A3004 RMK ST8 SLP203
Observed Flight Rules
Jan-24 @ 11:00 UTC
(29 minutes ago)
IFR
Wind Visibility
270° at 5 knots 8 miles
Clouds
  • Overcast at 500' AGL
Temperature Dewpoint
-5°C / 23°F -6°C / 21°F
Humidity Altimeter Pressure
93% 30.04" Hg 1020.3 hPa